sensor_id;sensor_type;location;lat;lon;timestamp;temperature;humidity
11965;DHT22;6042;41.326;19.826;2024-01-30T00:01:24;3.40;99.90
11965;DHT22;6042;41.326;19.826;2024-01-30T00:03:52;3.20;99.90
11965;DHT22;6042;41.326;19.826;2024-01-30T00:06:22;3.10;99.90
11965;DHT22;6042;41.326;19.826;2024-01-30T00:08:52;3.20;99.90
11965;DHT22;6042;41.326;19.826;2024-01-30T00:11:20;3.10;99.90
11965;DHT22;6042;41.326;19.826;2024-01-30T00:13:51;3.10;99.90
11965;DHT22;6042;41.326;19.826;2024-01-30T00:16:20;3.20;99.90
11965;DHT22;6042;41.326;19.826;2024-01-30T00:18:51;3.30;99.90
11965;DHT22;6042;41.326;19.826;2024-01-30T00:21:22;3.30;99.90
11965;DHT22;6042;41.326;19.826;2024-01-30T00:23:52;3.10;99.90
11965;DHT22;6042;41.326;19.826;2024-01-30T00:26:21;3.00;99.90
11965;DHT22;6042;41.326;19.826;2024-01-30T00:28:50;2.90;99.90
11965;DHT22;6042;41.326;19.826;2024-01-30T00:31:22;3.10;99.90
11965;DHT22;6042;41.326;19.826;2024-01-30T00:33:51;3.30;99.90
11965;DHT22;6042;41.326;19.826;2024-01-30T00:36:19;3.50;99.90
11965;DHT22;6042;41.326;19.826;2024-01-30T00:38:59;3.60;99.90
11965;DHT22;6042;41.326;19.826;2024-01-30T00:41:27;3.60;99.90
11965;DHT22;6042;41.326;19.826;2024-01-30T00:43:56;3.10;99.90
11965;DHT22;6042;41.326;19.826;2024-01-30T00:46:25;2.90;99.90
11965;DHT22;6042;41.326;19.826;2024-01-30T00:48:53;3.00;99.90
11965;DHT22;6042;41.326;19.826;2024-01-30T00:51:22;3.00;99.90
11965;DHT22;6042;41.326;19.826;2024-01-30T00:53:51;2.90;99.90
11965;DHT22;6042;41.326;19.826;2024-01-30T00:56:21;2.90;99.90
11965;DHT22;6042;41.326;19.826;2024-01-30T00:58:51;2.80;99.90
11965;DHT22;6042;41.326;19.826;2024-01-30T01:01:19;2.90;99.90
11965;DHT22;6042;41.326;19.826;2024-01-30T01:03:48;2.90;99.90
11965;DHT22;6042;41.326;19.826;2024-01-30T01:06:17;2.90;99.90
11965;DHT22;6042;41.326;19.826;2024-01-30T01:08:46;2.90;99.90
11965;DHT22;6042;41.326;19.826;2024-01-30T01:11:14;2.80;99.90
11965;DHT22;6042;41.326;19.826;2024-01-30T01:13:44;2.80;99.90
11965;DHT22;6042;41.326;19.826;2024-01-30T01:16:13;2.70;99.90
11965;DHT22;6042;41.326;19.826;2024-01-30T01:18:43;2.70;99.90
11965;DHT22;6042;41.326;19.826;2024-01-30T01:21:12;2.80;99.90
11965;DHT22;6042;41.326;19.826;2024-01-30T01:23:40;2.80;99.90
11965;DHT22;6042;41.326;19.826;2024-01-30T01:26:09;2.80;99.90
11965;DHT22;6042;41.326;19.826;2024-01-30T01:28:40;2.80;99.90
11965;DHT22;6042;41.326;19.826;2024-01-30T01:31:10;2.80;99.90
11965;DHT22;6042;41.326;19.826;2024-01-30T01:33:39;2.80;99.90
11965;DHT22;6042;41.326;19.826;2024-01-30T01:36:10;2.80;99.90
11965;DHT22;6042;41.326;19.826;2024-01-30T01:38:39;2.70;99.90
11965;DHT22;6042;41.326;19.826;2024-01-30T01:41:07;2.70;99.90
11965;DHT22;6042;41.326;19.826;2024-01-30T01:43:36;2.70;99.90
11965;DHT22;6042;41.326;19.826;2024-01-30T01:46:06;2.70;99.90
11965;DHT22;6042;41.326;19.826;2024-01-30T01:48:37;2.70;99.90
11965;DHT22;6042;41.326;19.826;2024-01-30T01:51:07;2.90;99.90
11965;DHT22;6042;41.326;19.826;2024-01-30T01:53:37;2.80;99.90
11965;DHT22;6042;41.326;19.826;2024-01-30T01:56:06;2.70;99.90
11965;DHT22;6042;41.326;19.826;2024-01-30T01:58:35;2.50;99.90
11965;DHT22;6042;41.326;19.826;2024-01-30T02:01:05;2.70;99.90
11965;DHT22;6042;41.326;19.826;2024-01-30T02:03:35;2.70;99.90
11965;DHT22;6042;41.326;19.826;2024-01-30T02:06:07;2.70;99.90
11965;DHT22;6042;41.326;19.826;2024-01-30T02:08:37;2.80;99.90
11965;DHT22;6042;41.326;19.826;2024-01-30T02:11:06;2.90;99.90
11965;DHT22;6042;41.326;19.826;2024-01-30T02:13:35;3.00;99.90
11965;DHT22;6042;41.326;19.826;2024-01-30T02:16:07;2.80;99.90
11965;DHT22;6042;41.326;19.826;2024-01-30T02:18:37;2.70;99.90
11965;DHT22;6042;41.326;19.826;2024-01-30T02:21:12;2.70;99.90
11965;DHT22;6042;41.326;19.826;2024-01-30T02:23:42;2.70;99.90
11965;DHT22;6042;41.326;19.826;2024-01-30T02:26:14;2.60;99.90
11965;DHT22;6042;41.326;19.826;2024-01-30T02:28:43;2.60;99.90
11965;DHT22;6042;41.326;19.826;2024-01-30T02:31:11;2.60;99.90
11965;DHT22;6042;41.326;19.826;2024-01-30T02:33:40;2.60;99.90
11965;DHT22;6042;41.326;19.826;2024-01-30T02:36:09;2.60;99.90
11965;DHT22;6042;41.326;19.826;2024-01-30T02:38:39;2.70;99.90
11965;DHT22;6042;41.326;19.826;2024-01-30T02:41:07;2.50;99.90
11965;DHT22;6042;41.326;19.826;2024-01-30T02:43:36;2.70;99.90
11965;DHT22;6042;41.326;19.826;2024-01-30T02:46:05;2.70;99.90
11965;DHT22;6042;41.326;19.826;2024-01-30T02:48:33;2.70;99.90
11965;DHT22;6042;41.326;19.826;2024-01-30T02:51:02;2.60;99.90
11965;DHT22;6042;41.326;19.826;2024-01-30T02:53:31;2.50;99.90
11965;DHT22;6042;41.326;19.826;2024-01-30T02:56:03;2.50;99.90
11965;DHT22;6042;41.326;19.826;2024-01-30T02:58:33;2.50;99.90
11965;DHT22;6042;41.326;19.826;2024-01-30T03:01:01;2.40;99.90
11965;DHT22;6042;41.326;19.826;2024-01-30T03:03:30;2.60;99.90
11965;DHT22;6042;41.326;19.826;2024-01-30T03:06:00;2.80;99.90
11965;DHT22;6042;41.326;19.826;2024-01-30T03:08:29;3.00;99.90
11965;DHT22;6042;41.326;19.826;2024-01-30T03:10:58;2.60;99.90
11965;DHT22;6042;41.326;19.826;2024-01-30T03:13:28;2.30;99.90
11965;DHT22;6042;41.326;19.826;2024-01-30T03:15:56;2.40;99.90
11965;DHT22;6042;41.326;19.826;2024-01-30T03:18:25;2.50;99.90
11965;DHT22;6042;41.326;19.826;2024-01-30T03:20:54;2.50;99.90
11965;DHT22;6042;41.326;19.826;2024-01-30T03:23:23;2.50;99.90
11965;DHT22;6042;41.326;19.826;2024-01-30T03:25:51;2.60;99.90
11965;DHT22;6042;41.326;19.826;2024-01-30T03:28:20;2.50;99.90
11965;DHT22;6042;41.326;19.826;2024-01-30T03:30:52;2.40;99.90
11965;DHT22;6042;41.326;19.826;2024-01-30T03:33:20;2.40;99.90
11965;DHT22;6042;41.326;19.826;2024-01-30T03:35:49;2.40;99.90
11965;DHT22;6042;41.326;19.826;2024-01-30T03:38:18;2.50;99.90
11965;DHT22;6042;41.326;19.826;2024-01-30T03:40:46;2.50;99.90
11965;DHT22;6042;41.326;19.826;2024-01-30T03:43:15;2.60;99.90
11965;DHT22;6042;41.326;19.826;2024-01-30T03:45:44;2.40;99.90
11965;DHT22;6042;41.326;19.826;2024-01-30T03:48:14;2.10;99.90
11965;DHT22;6042;41.326;19.826;2024-01-30T03:50:43;2.10;99.90
11965;DHT22;6042;41.326;19.826;2024-01-30T03:53:12;1.90;99.90
11965;DHT22;6042;41.326;19.826;2024-01-30T03:55:40;2.00;99.90
11965;DHT22;6042;41.326;19.826;2024-01-30T03:58:09;2.00;99.90
11965;DHT22;6042;41.326;19.826;2024-01-30T04:00:38;2.30;99.90
11965;DHT22;6042;41.326;19.826;2024-01-30T04:03:08;2.40;99.90
11965;DHT22;6042;41.326;19.826;2024-01-30T04:05:38;2.30;99.90
11965;DHT22;6042;41.326;19.826;2024-01-30T04:08:09;2.30;99.90
11965;DHT22;6042;41.326;19.826;2024-01-30T04:10:37;2.30;99.90
11965;DHT22;6042;41.326;19.826;2024-01-30T04:13:06;2.20;99.90
11965;DHT22;6042;41.326;19.826;2024-01-30T04:15:38;2.10;99.90
11965;DHT22;6042;41.326;19.826;2024-01-30T04:18:06;2.00;99.90
11965;DHT22;6042;41.326;19.826;2024-01-30T04:20:35;2.10;99.90
11965;DHT22;6042;41.326;19.826;2024-01-30T04:23:05;2.20;99.90
11965;DHT22;6042;41.326;19.826;2024-01-30T04:25:35;2.20;99.90
11965;DHT22;6042;41.326;19.826;2024-01-30T04:28:05;2.20;99.90
11965;DHT22;6042;41.326;19.826;2024-01-30T04:30:34;2.10;99.90
11965;DHT22;6042;41.326;19.826;2024-01-30T04:33:03;2.20;99.90
11965;DHT22;6042;41.326;19.826;2024-01-30T04:35:41;2.10;99.90
11965;DHT22;6042;41.326;19.826;2024-01-30T04:38:11;2.10;99.90
11965;DHT22;6042;41.326;19.826;2024-01-30T04:40:44;2.30;99.90
11965;DHT22;6042;41.326;19.826;2024-01-30T04:43:13;2.10;99.90
11965;DHT22;6042;41.326;19.826;2024-01-30T04:45:42;2.10;99.90
11965;DHT22;6042;41.326;19.826;2024-01-30T04:48:11;2.10;99.90
11965;DHT22;6042;41.326;19.826;2024-01-30T04:50:40;2.00;99.90
11965;DHT22;6042;41.326;19.826;2024-01-30T04:53:13;2.00;99.90
11965;DHT22;6042;41.326;19.826;2024-01-30T04:55:42;2.00;99.90
11965;DHT22;6042;41.326;19.826;2024-01-30T04:58:11;2.10;99.90
11965;DHT22;6042;41.326;19.826;2024-01-30T05:00:39;2.10;99.90
11965;DHT22;6042;41.326;19.826;2024-01-30T05:03:08;2.20;99.90
11965;DHT22;6042;41.326;19.826;2024-01-30T05:05:37;2.40;99.90
11965;DHT22;6042;41.326;19.826;2024-01-30T05:08:06;2.70;99.90
11965;DHT22;6042;41.326;19.826;2024-01-30T05:10:36;2.10;99.90
11965;DHT22;6042;41.326;19.826;2024-01-30T05:13:05;1.80;99.90
11965;DHT22;6042;41.326;19.826;2024-01-30T05:15:33;1.90;99.90
11965;DHT22;6042;41.326;19.826;2024-01-30T05:18:05;2.10;99.90
11965;DHT22;6042;41.326;19.826;2024-01-30T05:20:34;2.10;99.90
11965;DHT22;6042;41.326;19.826;2024-01-30T05:23:03;2.10;99.90
11965;DHT22;6042;41.326;19.826;2024-01-30T05:25:32;2.00;99.90
11965;DHT22;6042;41.326;19.826;2024-01-30T05:28:02;1.90;99.90
11965;DHT22;6042;41.326;19.826;2024-01-30T05:30:31;1.80;99.90
11965;DHT22;6042;41.326;19.826;2024-01-30T05:33:00;1.80;99.90
11965;DHT22;6042;41.326;19.826;2024-01-30T05:35:28;1.90;99.90
11965;DHT22;6042;41.326;19.826;2024-01-30T05:37:57;1.80;99.90
11965;DHT22;6042;41.326;19.826;2024-01-30T05:40:27;1.80;99.90
11965;DHT22;6042;41.326;19.826;2024-01-30T05:42:56;1.90;99.90
11965;DHT22;6042;41.326;19.826;2024-01-30T05:45:27;1.90;99.90
11965;DHT22;6042;41.326;19.826;2024-01-30T05:47:55;1.80;99.90
11965;DHT22;6042;41.326;19.826;2024-01-30T05:50:24;1.70;99.90
11965;DHT22;6042;41.326;19.826;2024-01-30T05:52:54;1.70;99.90
11965;DHT22;6042;41.326;19.826;2024-01-30T05:55:22;1.60;99.90
11965;DHT22;6042;41.326;19.826;2024-01-30T05:57:51;1.60;99.90
11965;DHT22;6042;41.326;19.826;2024-01-30T06:00:20;1.50;99.90
11965;DHT22;6042;41.326;19.826;2024-01-30T06:02:51;1.50;99.90
11965;DHT22;6042;41.326;19.826;2024-01-30T06:05:19;1.40;99.90
11965;DHT22;6042;41.326;19.826;2024-01-30T06:07:48;1.40;99.90
11965;DHT22;6042;41.326;19.826;2024-01-30T06:10:17;1.30;99.90
11965;DHT22;6042;41.326;19.826;2024-01-30T06:12:46;1.20;99.90
11965;DHT22;6042;41.326;19.826;2024-01-30T06:15:15;1.10;99.90
11965;DHT22;6042;41.326;19.826;2024-01-30T06:17:44;1.10;99.90
11965;DHT22;6042;41.326;19.826;2024-01-30T06:20:15;1.30;99.90
11965;DHT22;6042;41.326;19.826;2024-01-30T06:22:45;1.40;99.90
11965;DHT22;6042;41.326;19.826;2024-01-30T06:25:18;1.60;99.90
11965;DHT22;6042;41.326;19.826;2024-01-30T06:27:52;1.70;99.90
11965;DHT22;6042;41.326;19.826;2024-01-30T06:30:21;1.80;99.90
11965;DHT22;6042;41.326;19.826;2024-01-30T06:32:49;1.70;99.90
11965;DHT22;6042;41.326;19.826;2024-01-30T06:35:20;1.60;99.90
11965;DHT22;6042;41.326;19.826;2024-01-30T06:37:49;1.40;99.90
11965;DHT22;6042;41.326;19.826;2024-01-30T06:40:17;1.20;99.90
11965;DHT22;6042;41.326;19.826;2024-01-30T06:42:49;0.90;99.90
11965;DHT22;6042;41.326;19.826;2024-01-30T06:45:19;0.90;99.90
11965;DHT22;6042;41.326;19.826;2024-01-30T06:47:54;1.20;99.90
11965;DHT22;6042;41.326;19.826;2024-01-30T06:50:26;1.20;99.90
11965;DHT22;6042;41.326;19.826;2024-01-30T06:52:58;1.20;99.90
11965;DHT22;6042;41.326;19.826;2024-01-30T06:55:30;1.40;99.90
11965;DHT22;6042;41.326;19.826;2024-01-30T06:58:00;1.50;99.90
11965;DHT22;6042;41.326;19.826;2024-01-30T07:00:34;1.60;99.90
11965;DHT22;6042;41.326;19.826;2024-01-30T07:03:03;1.60;99.90
11965;DHT22;6042;41.326;19.826;2024-01-30T07:05:34;1.90;99.90
11965;DHT22;6042;41.326;19.826;2024-01-30T07:08:04;2.20;99.90
11965;DHT22;6042;41.326;19.826;2024-01-30T07:10:37;2.20;99.90
11965;DHT22;6042;41.326;19.826;2024-01-30T07:13:11;2.10;99.90
11965;DHT22;6042;41.326;19.826;2024-01-30T07:15:40;2.30;99.90
11965;DHT22;6042;41.326;19.826;2024-01-30T07:18:09;2.30;99.90
11965;DHT22;6042;41.326;19.826;2024-01-30T07:20:39;2.40;99.90
11965;DHT22;6042;41.326;19.826;2024-01-30T07:23:14;2.70;99.90
11965;DHT22;6042;41.326;19.826;2024-01-30T07:25:44;2.70;99.90
11965;DHT22;6042;41.326;19.826;2024-01-30T07:28:17;2.90;99.90
11965;DHT22;6042;41.326;19.826;2024-01-30T07:30:46;3.00;99.90
11965;DHT22;6042;41.326;19.826;2024-01-30T07:33:16;3.00;99.90
11965;DHT22;6042;41.326;19.826;2024-01-30T07:35:47;3.30;99.90
11965;DHT22;6042;41.326;19.826;2024-01-30T07:38:19;3.50;99.90
11965;DHT22;6042;41.326;19.826;2024-01-30T07:40:48;3.60;99.90
11965;DHT22;6042;41.326;19.826;2024-01-30T07:43:17;3.70;99.90
11965;DHT22;6042;41.326;19.826;2024-01-30T07:45:47;3.70;99.90
11965;DHT22;6042;41.326;19.826;2024-01-30T07:48:16;3.70;99.90
11965;DHT22;6042;41.326;19.826;2024-01-30T07:50:59;4.10;99.90
11965;DHT22;6042;41.326;19.826;2024-01-30T07:53:31;4.80;99.90
11965;DHT22;6042;41.326;19.826;2024-01-30T07:55:59;5.10;99.90
11965;DHT22;6042;41.326;19.826;2024-01-30T07:58:28;5.30;99.90
11965;DHT22;6042;41.326;19.826;2024-01-30T08:00:57;5.60;99.40
11965;DHT22;6042;41.326;19.826;2024-01-30T08:03:29;5.00;99.60
11965;DHT22;6042;41.326;19.826;2024-01-30T08:06:02;5.10;99.70
11965;DHT22;6042;41.326;19.826;2024-01-30T08:08:31;5.60;98.40
11965;DHT22;6042;41.326;19.826;2024-01-30T08:11:01;5.70;98.00
11965;DHT22;6042;41.326;19.826;2024-01-30T08:13:37;5.70;97.40
11965;DHT22;6042;41.326;19.826;2024-01-30T08:16:06;5.60;95.70
11965;DHT22;6042;41.326;19.826;2024-01-30T08:18:38;5.70;96.80
11965;DHT22;6042;41.326;19.826;2024-01-30T08:21:15;6.20;97.80
11965;DHT22;6042;41.326;19.826;2024-01-30T08:23:44;6.40;94.20
11965;DHT22;6042;41.326;19.826;2024-01-30T08:26:12;6.20;93.30
11965;DHT22;6042;41.326;19.826;2024-01-30T08:28:41;6.30;93.90
11965;DHT22;6042;41.326;19.826;2024-01-30T08:31:10;6.30;93.20
11965;DHT22;6042;41.326;19.826;2024-01-30T08:33:39;6.20;93.60
11965;DHT22;6042;41.326;19.826;2024-01-30T08:36:10;6.20;93.40
11965;DHT22;6042;41.326;19.826;2024-01-30T08:38:40;6.20;94.10
11965;DHT22;6042;41.326;19.826;2024-01-30T08:41:09;6.30;92.90
11965;DHT22;6042;41.326;19.826;2024-01-30T08:43:38;6.40;92.70
11965;DHT22;6042;41.326;19.826;2024-01-30T08:46:07;6.60;92.50
11965;DHT22;6042;41.326;19.826;2024-01-30T08:48:36;6.90;93.20
11965;DHT22;6042;41.326;19.826;2024-01-30T08:51:05;7.10;91.10
11965;DHT22;6042;41.326;19.826;2024-01-30T08:53:35;6.90;91.00
11965;DHT22;6042;41.326;19.826;2024-01-30T08:56:06;6.90;90.90
11965;DHT22;6042;41.326;19.826;2024-01-30T08:58:35;6.90;91.00
11965;DHT22;6042;41.326;19.826;2024-01-30T09:01:04;7.00;91.30
11965;DHT22;6042;41.326;19.826;2024-01-30T09:03:34;7.20;90.50
11965;DHT22;6042;41.326;19.826;2024-01-30T09:06:04;7.10;90.30
11965;DHT22;6042;41.326;19.826;2024-01-30T09:08:35;7.20;89.70
11965;DHT22;6042;41.326;19.826;2024-01-30T09:11:10;7.50;89.80
11965;DHT22;6042;41.326;19.826;2024-01-30T09:13:40;7.30;90.40
11965;DHT22;6042;41.326;19.826;2024-01-30T09:16:09;7.40;90.40
11965;DHT22;6042;41.326;19.826;2024-01-30T09:18:38;7.60;90.80
11965;DHT22;6042;41.326;19.826;2024-01-30T09:21:06;7.60;90.90
11965;DHT22;6042;41.326;19.826;2024-01-30T09:23:35;7.60;90.80
11965;DHT22;6042;41.326;19.826;2024-01-30T09:26:04;7.70;91.10
11965;DHT22;6042;41.326;19.826;2024-01-30T09:28:34;7.80;91.00
11965;DHT22;6042;41.326;19.826;2024-01-30T09:31:03;7.60;91.50
11965;DHT22;6042;41.326;19.826;2024-01-30T09:33:32;7.60;91.40
11965;DHT22;6042;41.326;19.826;2024-01-30T09:36:01;7.90;91.40
11965;DHT22;6042;41.326;19.826;2024-01-30T09:38:29;7.80;91.30
11965;DHT22;6042;41.326;19.826;2024-01-30T09:41:00;7.70;91.20
11965;DHT22;6042;41.326;19.826;2024-01-30T09:43:34;7.80;90.50
11965;DHT22;6042;41.326;19.826;2024-01-30T09:46:05;7.90;89.30
11965;DHT22;6042;41.326;19.826;2024-01-30T09:48:38;7.70;90.10
11965;DHT22;6042;41.326;19.826;2024-01-30T09:51:08;7.90;90.70
11965;DHT22;6042;41.326;19.826;2024-01-30T09:53:36;8.00;90.40
11965;DHT22;6042;41.326;19.826;2024-01-30T09:56:06;7.90;90.20
11965;DHT22;6042;41.326;19.826;2024-01-30T09:58:37;7.90;88.70
11965;DHT22;6042;41.326;19.826;2024-01-30T10:01:07;8.00;89.20
11965;DHT22;6042;41.326;19.826;2024-01-30T10:03:39;8.30;89.60
11965;DHT22;6042;41.326;19.826;2024-01-30T10:06:09;8.00;89.30
11965;DHT22;6042;41.326;19.826;2024-01-30T10:08:40;8.20;88.70
11965;DHT22;6042;41.326;19.826;2024-01-30T10:11:08;8.30;87.60
11965;DHT22;6042;41.326;19.826;2024-01-30T10:13:39;8.20;86.00
11965;DHT22;6042;41.326;19.826;2024-01-30T10:16:08;8.30;86.40
11965;DHT22;6042;41.326;19.826;2024-01-30T10:18:37;8.50;83.90
11965;DHT22;6042;41.326;19.826;2024-01-30T10:21:10;8.50;81.70
11965;DHT22;6042;41.326;19.826;2024-01-30T10:23:39;8.30;80.10
11965;DHT22;6042;41.326;19.826;2024-01-30T10:26:08;8.60;77.10
11965;DHT22;6042;41.326;19.826;2024-01-30T10:28:40;8.70;76.80
11965;DHT22;6042;41.326;19.826;2024-01-30T10:31:09;8.60;77.50
11965;DHT22;6042;41.326;19.826;2024-01-30T10:33:38;8.80;77.30
11965;DHT22;6042;41.326;19.826;2024-01-30T10:36:08;9.00;77.10
11965;DHT22;6042;41.326;19.826;2024-01-30T10:38:39;9.00;77.20
11965;DHT22;6042;41.326;19.826;2024-01-30T10:41:11;9.10;75.10
11965;DHT22;6042;41.326;19.826;2024-01-30T10:43:50;9.40;73.30
11965;DHT22;6042;41.326;19.826;2024-01-30T10:46:29;9.30;73.60
11965;DHT22;6042;41.326;19.826;2024-01-30T10:49:02;9.30;72.30
11965;DHT22;6042;41.326;19.826;2024-01-30T10:51:32;9.60;71.40
11965;DHT22;6042;41.326;19.826;2024-01-30T10:54:03;9.60;70.40
11965;DHT22;6042;41.326;19.826;2024-01-30T10:56:34;9.70;71.20
11965;DHT22;6042;41.326;19.826;2024-01-30T10:59:05;10.00;69.70
11965;DHT22;6042;41.326;19.826;2024-01-30T11:01:38;10.00;70.70
11965;DHT22;6042;41.326;19.826;2024-01-30T11:04:07;10.00;68.80
11965;DHT22;6042;41.326;19.826;2024-01-30T11:06:41;10.20;69.10
11965;DHT22;6042;41.326;19.826;2024-01-30T11:09:11;10.40;69.00
11965;DHT22;6042;41.326;19.826;2024-01-30T11:11:51;10.50;68.40
11965;DHT22;6042;41.326;19.826;2024-01-30T11:14:25;10.60;67.50
11965;DHT22;6042;41.326;19.826;2024-01-30T11:16:57;10.60;65.70
11965;DHT22;6042;41.326;19.826;2024-01-30T11:19:27;10.60;66.60
11965;DHT22;6042;41.326;19.826;2024-01-30T11:22:00;10.70;66.50
11965;DHT22;6042;41.326;19.826;2024-01-30T11:24:29;10.90;65.70
11965;DHT22;6042;41.326;19.826;2024-01-30T11:26:58;10.90;64.20
11965;DHT22;6042;41.326;19.826;2024-01-30T11:29:29;11.10;63.70
11965;DHT22;6042;41.326;19.826;2024-01-30T11:31:59;11.30;62.80
11965;DHT22;6042;41.326;19.826;2024-01-30T11:34:28;11.20;63.20
11965;DHT22;6042;41.326;19.826;2024-01-30T11:36:59;11.30;61.80
11965;DHT22;6042;41.326;19.826;2024-01-30T11:39:30;11.40;62.10
11965;DHT22;6042;41.326;19.826;2024-01-30T11:42:00;11.40;62.30
11965;DHT22;6042;41.326;19.826;2024-01-30T11:44:32;11.60;62.60
11965;DHT22;6042;41.326;19.826;2024-01-30T11:47:01;12.00;61.30
11965;DHT22;6042;41.326;19.826;2024-01-30T11:49:30;12.00;61.40
11965;DHT22;6042;41.326;19.826;2024-01-30T11:51:59;12.00;59.30
11965;DHT22;6042;41.326;19.826;2024-01-30T11:54:28;11.90;59.40
11965;DHT22;6042;41.326;19.826;2024-01-30T11:56:57;11.70;59.50
11965;DHT22;6042;41.326;19.826;2024-01-30T11:59:26;11.90;59.90
11965;DHT22;6042;41.326;19.826;2024-01-30T12:01:56;12.00;59.20
11965;DHT22;6042;41.326;19.826;2024-01-30T12:04:28;11.90;59.50
11965;DHT22;6042;41.326;19.826;2024-01-30T12:06:59;12.00;59.90
11965;DHT22;6042;41.326;19.826;2024-01-30T12:09:30;12.20;59.40
11965;DHT22;6042;41.326;19.826;2024-01-30T12:11:59;12.10;59.50
11965;DHT22;6042;41.326;19.826;2024-01-30T12:14:28;12.20;59.90
11965;DHT22;6042;41.326;19.826;2024-01-30T12:16:58;12.20;59.50
11965;DHT22;6042;41.326;19.826;2024-01-30T12:19:27;12.10;59.30
11965;DHT22;6042;41.326;19.826;2024-01-30T12:21:56;12.30;59.30
11965;DHT22;6042;41.326;19.826;2024-01-30T12:24:27;12.40;59.30
11965;DHT22;6042;41.326;19.826;2024-01-30T12:26:59;12.30;59.90
11965;DHT22;6042;41.326;19.826;2024-01-30T12:29:32;12.50;60.90
11965;DHT22;6042;41.326;19.826;2024-01-30T12:32:06;12.80;60.40
11965;DHT22;6042;41.326;19.826;2024-01-30T12:34:40;12.60;60.90
11965;DHT22;6042;41.326;19.826;2024-01-30T12:37:26;12.60;62.20
11965;DHT22;6042;41.326;19.826;2024-01-30T12:39:57;12.80;62.10
11965;DHT22;6042;41.326;19.826;2024-01-30T12:42:27;12.70;61.90
11965;DHT22;6042;41.326;19.826;2024-01-30T12:44:57;12.70;62.00
11965;DHT22;6042;41.326;19.826;2024-01-30T12:47:28;12.70;61.80
11965;DHT22;6042;41.326;19.826;2024-01-30T12:49:57;12.60;61.90
11965;DHT22;6042;41.326;19.826;2024-01-30T12:52:26;12.80;61.90
11965;DHT22;6042;41.326;19.826;2024-01-30T12:54:58;12.80;61.00
11965;DHT22;6042;41.326;19.826;2024-01-30T12:57:27;12.70;61.10
11965;DHT22;6042;41.326;19.826;2024-01-30T12:59:56;12.70;59.40
11965;DHT22;6042;41.326;19.826;2024-01-30T13:02:25;12.70;59.00
11965;DHT22;6042;41.326;19.826;2024-01-30T13:05:05;12.60;58.70
11965;DHT22;6042;41.326;19.826;2024-01-30T13:07:37;12.40;58.80
11965;DHT22;6042;41.326;19.826;2024-01-30T13:10:06;12.30;59.40
11965;DHT22;6042;41.326;19.826;2024-01-30T13:12:35;12.30;59.60
11965;DHT22;6042;41.326;19.826;2024-01-30T13:15:08;12.30;59.40
11965;DHT22;6042;41.326;19.826;2024-01-30T13:17:38;12.30;58.50
11965;DHT22;6042;41.326;19.826;2024-01-30T13:20:09;12.30;59.00
11965;DHT22;6042;41.326;19.826;2024-01-30T13:22:39;12.20;59.30
11965;DHT22;6042;41.326;19.826;2024-01-30T13:25:08;12.10;59.90
11965;DHT22;6042;41.326;19.826;2024-01-30T13:27:38;12.10;60.20
11965;DHT22;6042;41.326;19.826;2024-01-30T13:30:07;12.00;59.40
11965;DHT22;6042;41.326;19.826;2024-01-30T13:32:37;11.90;59.70
11965;DHT22;6042;41.326;19.826;2024-01-30T13:35:25;11.80;60.30
11965;DHT22;6042;41.326;19.826;2024-01-30T13:37:56;11.90;60.10
11965;DHT22;6042;41.326;19.826;2024-01-30T13:40:25;11.90;59.50
11965;DHT22;6042;41.326;19.826;2024-01-30T13:42:54;11.80;60.00
11965;DHT22;6042;41.326;19.826;2024-01-30T13:45:25;11.80;59.70
11965;DHT22;6042;41.326;19.826;2024-01-30T13:47:54;11.70;60.00
11965;DHT22;6042;41.326;19.826;2024-01-30T13:50:26;11.60;59.90
11965;DHT22;6042;41.326;19.826;2024-01-30T13:52:55;11.60;59.70
11965;DHT22;6042;41.326;19.826;2024-01-30T13:55:25;11.50;61.10
11965;DHT22;6042;41.326;19.826;2024-01-30T13:57:57;11.50;61.10
11965;DHT22;6042;41.326;19.826;2024-01-30T14:00:25;11.50;60.30
11965;DHT22;6042;41.326;19.826;2024-01-30T14:02:54;11.30;60.40
11965;DHT22;6042;41.326;19.826;2024-01-30T14:05:26;11.20;61.40
11965;DHT22;6042;41.326;19.826;2024-01-30T14:07:56;11.30;62.00
11965;DHT22;6042;41.326;19.826;2024-01-30T14:10:25;11.50;61.20
11965;DHT22;6042;41.326;19.826;2024-01-30T14:12:54;11.40;60.70
11965;DHT22;6042;41.326;19.826;2024-01-30T14:15:25;11.40;60.60
11965;DHT22;6042;41.326;19.826;2024-01-30T14:17:58;11.30;58.60
11965;DHT22;6042;41.326;19.826;2024-01-30T14:20:28;11.30;58.50
11965;DHT22;6042;41.326;19.826;2024-01-30T14:22:58;11.30;58.30
11965;DHT22;6042;41.326;19.826;2024-01-30T14:25:27;11.30;57.80
11965;DHT22;6042;41.326;19.826;2024-01-30T14:27:56;11.30;57.90
11965;DHT22;6042;41.326;19.826;2024-01-30T14:30:24;11.40;57.50
11965;DHT22;6042;41.326;19.826;2024-01-30T14:32:53;11.40;57.10
11965;DHT22;6042;41.326;19.826;2024-01-30T14:35:23;11.30;57.70
11965;DHT22;6042;41.326;19.826;2024-01-30T14:37:53;11.20;57.70
11965;DHT22;6042;41.326;19.826;2024-01-30T14:40:22;11.20;57.10
11965;DHT22;6042;41.326;19.826;2024-01-30T14:42:51;11.10;57.80
11965;DHT22;6042;41.326;19.826;2024-01-30T14:45:21;11.10;58.40
11965;DHT22;6042;41.326;19.826;2024-01-30T14:47:50;11.20;58.70
11965;DHT22;6042;41.326;19.826;2024-01-30T14:50:20;11.20;58.30
11965;DHT22;6042;41.326;19.826;2024-01-30T14:52:49;11.20;58.70
11965;DHT22;6042;41.326;19.826;2024-01-30T14:55:19;11.10;58.50
11965;DHT22;6042;41.326;19.826;2024-01-30T14:57:48;11.10;58.40
11965;DHT22;6042;41.326;19.826;2024-01-30T15:00:17;11.10;59.10
11965;DHT22;6042;41.326;19.826;2024-01-30T15:02:49;11.10;58.00
11965;DHT22;6042;41.326;19.826;2024-01-30T15:05:17;11.20;58.10
11965;DHT22;6042;41.326;19.826;2024-01-30T15:07:46;11.00;58.40
11965;DHT22;6042;41.326;19.826;2024-01-30T15:10:15;11.00;58.10
11965;DHT22;6042;41.326;19.826;2024-01-30T15:12:45;11.00;57.70
11965;DHT22;6042;41.326;19.826;2024-01-30T15:15:16;10.90;57.70
11965;DHT22;6042;41.326;19.826;2024-01-30T15:17:45;10.90;58.20
11965;DHT22;6042;41.326;19.826;2024-01-30T15:20:14;10.80;58.10
11965;DHT22;6042;41.326;19.826;2024-01-30T15:22:43;10.60;58.40
11965;DHT22;6042;41.326;19.826;2024-01-30T15:25:12;10.60;58.60
11965;DHT22;6042;41.326;19.826;2024-01-30T15:27:42;10.70;58.00
11965;DHT22;6042;41.326;19.826;2024-01-30T15:30:15;10.40;58.80
11965;DHT22;6042;41.326;19.826;2024-01-30T15:32:47;10.40;58.50
11965;DHT22;6042;41.326;19.826;2024-01-30T15:35:16;10.40;58.70
11965;DHT22;6042;41.326;19.826;2024-01-30T15:37:45;10.20;59.30
11965;DHT22;6042;41.326;19.826;2024-01-30T15:40:14;10.30;58.20
11965;DHT22;6042;41.326;19.826;2024-01-30T15:42:43;10.50;57.60
11965;DHT22;6042;41.326;19.826;2024-01-30T15:45:11;10.30;58.50
11965;DHT22;6042;41.326;19.826;2024-01-30T15:47:42;10.30;58.50
11965;DHT22;6042;41.326;19.826;2024-01-30T15:50:11;10.30;58.70
11965;DHT22;6042;41.326;19.826;2024-01-30T15:52:40;10.20;56.90
11965;DHT22;6042;41.326;19.826;2024-01-30T15:55:09;10.10;57.00
11965;DHT22;6042;41.326;19.826;2024-01-30T15:57:39;10.20;58.30
11965;DHT22;6042;41.326;19.826;2024-01-30T16:00:09;10.20;57.40